sensor_id;sensor_type;location;lat;lon;timestamp;pressure;altitude;pressure_sealevel;temperature;humidity
11672;BME280;5892;43.412;24.612;2022-09-13T00:00:37;99679.06;;;17.96;74.16
11672;BME280;5892;43.412;24.612;2022-09-13T00:03:08;99685.91;;;18.06;73.67
11672;BME280;5892;43.412;24.612;2022-09-13T00:05:38;99690.94;;;17.97;73.69
11672;BME280;5892;43.412;24.612;2022-09-13T00:08:14;99654.56;;;17.72;74.43
11672;BME280;5892;43.412;24.612;2022-09-13T00:10:45;99686.84;;;17.87;74.46
11672;BME280;5892;43.412;24.612;2022-09-13T00:13:24;99689.00;;;17.71;74.93
11672;BME280;5892;43.412;24.612;2022-09-13T00:16:04;99684.09;;;17.61;75.52
11672;BME280;5892;43.412;24.612;2022-09-13T00:18:56;99689.56;;;17.57;75.91
11672;BME280;5892;43.412;24.612;2022-09-13T00:21:27;99680.47;;;17.34;76.82
11672;BME280;5892;43.412;24.612;2022-09-13T00:23:58;99675.09;;;17.22;77.05
11672;BME280;5892;43.412;24.612;2022-09-13T00:26:28;99676.84;;;17.07;78.10
11672;BME280;5892;43.412;24.612;2022-09-13T00:29:03;99677.72;;;17.11;78.17
11672;BME280;5892;43.412;24.612;2022-09-13T00:31:44;99677.59;;;17.04;78.66
11672;BME280;5892;43.412;24.612;2022-09-13T00:34:15;99646.06;;;16.67;79.39
11672;BME280;5892;43.412;24.612;2022-09-13T00:36:44;99673.00;;;16.70;80.37
11672;BME280;5892;43.412;24.612;2022-09-13T00:39:15;99676.06;;;16.65;80.69
11672;BME280;5892;43.412;24.612;2022-09-13T00:41:43;99655.41;;;16.59;80.87
11672;BME280;5892;43.412;24.612;2022-09-13T00:47:14;99661.59;;;16.33;82.76
11672;BME280;5892;43.412;24.612;2022-09-13T00:49:45;99649.28;;;16.30;83.01
11672;BME280;5892;43.412;24.612;2022-09-13T00:52:41;99649.75;;;16.32;83.02
11672;BME280;5892;43.412;24.612;2022-09-13T00:55:18;99657.34;;;16.39;83.27
11672;BME280;5892;43.412;24.612;2022-09-13T00:57:50;99656.44;;;16.31;83.67
11672;BME280;5892;43.412;24.612;2022-09-13T01:00:20;99658.75;;;16.29;84.10
11672;BME280;5892;43.412;24.612;2022-09-13T01:02:52;99655.84;;;16.22;84.43
11672;BME280;5892;43.412;24.612;2022-09-13T01:05:29;99670.91;;;16.25;84.42
11672;BME280;5892;43.412;24.612;2022-09-13T01:08:08;99666.69;;;16.31;84.07
11672;BME280;5892;43.412;24.612;2022-09-13T01:10:55;99642.59;;;16.12;84.56
11672;BME280;5892;43.412;24.612;2022-09-13T01:13:38;99654.81;;;16.30;84.06
11672;BME280;5892;43.412;24.612;2022-09-13T01:16:19;99644.34;;;16.01;84.80
11672;BME280;5892;43.412;24.612;2022-09-13T01:18:50;99645.56;;;16.03;85.43
11672;BME280;5892;43.412;24.612;2022-09-13T01:21:49;99658.69;;;16.06;85.48
11672;BME280;5892;43.412;24.612;2022-09-13T01:25:07;99669.34;;;16.08;85.73
11672;BME280;5892;43.412;24.612;2022-09-13T01:28:01;99639.34;;;15.72;87.47
11672;BME280;5892;43.412;24.612;2022-09-13T01:30:42;99651.28;;;15.76;87.95
11672;BME280;5892;43.412;24.612;2022-09-13T01:36:33;99654.13;;;15.79;87.63
11672;BME280;5892;43.412;24.612;2022-09-13T01:39:31;99666.28;;;15.75;88.09
11672;BME280;5892;43.412;24.612;2022-09-13T01:42:27;99661.59;;;15.59;89.66
11672;BME280;5892;43.412;24.612;2022-09-13T01:45:15;99665.38;;;15.71;89.23
11672;BME280;5892;43.412;24.612;2022-09-13T01:47:55;99660.50;;;15.64;89.59
11672;BME280;5892;43.412;24.612;2022-09-13T01:50:33;99659.69;;;15.63;89.71
11672;BME280;5892;43.412;24.612;2022-09-13T01:53:08;99641.88;;;15.45;90.44
11672;BME280;5892;43.412;24.612;2022-09-13T01:55:43;99661.13;;;15.57;90.83
11672;BME280;5892;43.412;24.612;2022-09-13T01:58:24;99657.56;;;15.57;90.92
11672;BME280;5892;43.412;24.612;2022-09-13T02:01:05;99664.19;;;15.52;91.28
11672;BME280;5892;43.412;24.612;2022-09-13T02:03:43;99653.38;;;15.47;91.46
11672;BME280;5892;43.412;24.612;2022-09-13T02:06:20;99657.84;;;15.52;92.09
11672;BME280;5892;43.412;24.612;2022-09-13T02:08:53;99650.63;;;15.47;92.35
11672;BME280;5892;43.412;24.612;2022-09-13T02:11:22;99654.47;;;15.43;92.77
11672;BME280;5892;43.412;24.612;2022-09-13T02:13:56;99655.44;;;15.35;93.14
11672;BME280;5892;43.412;24.612;2022-09-13T02:16:32;99655.97;;;15.40;93.20
11672;BME280;5892;43.412;24.612;2022-09-13T02:19:36;99650.28;;;15.33;93.62
11672;BME280;5892;43.412;24.612;2022-09-13T02:22:11;99654.28;;;15.36;93.58
11672;BME280;5892;43.412;24.612;2022-09-13T02:24:47;99645.25;;;15.39;93.03
11672;BME280;5892;43.412;24.612;2022-09-13T02:27:38;99649.56;;;15.36;93.21
11672;BME280;5892;43.412;24.612;2022-09-13T02:30:12;99652.13;;;15.29;93.60
11672;BME280;5892;43.412;24.612;2022-09-13T02:32:48;99652.25;;;15.33;93.41
11672;BME280;5892;43.412;24.612;2022-09-13T02:35:25;99649.84;;;15.31;93.60
11672;BME280;5892;43.412;24.612;2022-09-13T02:38:03;99617.63;;;15.04;93.64
11672;BME280;5892;43.412;24.612;2022-09-13T02:40:41;99664.44;;;15.16;94.45
11672;BME280;5892;43.412;24.612;2022-09-13T02:43:24;99660.00;;;15.11;94.43
11672;BME280;5892;43.412;24.612;2022-09-13T02:46:04;99659.47;;;15.06;95.03
11672;BME280;5892;43.412;24.612;2022-09-13T02:48:46;99660.63;;;15.05;95.27
11672;BME280;5892;43.412;24.612;2022-09-13T02:51:27;99652.88;;;14.95;95.87
11672;BME280;5892;43.412;24.612;2022-09-13T02:54:14;99644.88;;;14.90;95.77
11672;BME280;5892;43.412;24.612;2022-09-13T02:56:52;99652.34;;;14.89;95.90
11672;BME280;5892;43.412;24.612;2022-09-13T02:59:23;99670.66;;;14.97;95.87
11672;BME280;5892;43.412;24.612;2022-09-13T03:02:04;99675.56;;;14.88;96.72
11672;BME280;5892;43.412;24.612;2022-09-13T03:04:33;99639.84;;;14.64;97.39
11672;BME280;5892;43.412;24.612;2022-09-13T03:07:10;99652.06;;;14.78;97.68
11672;BME280;5892;43.412;24.612;2022-09-13T03:09:50;99660.34;;;14.78;98.42
11672;BME280;5892;43.412;24.612;2022-09-13T03:13:01;99659.06;;;14.76;98.41
11672;BME280;5892;43.412;24.612;2022-09-13T03:15:46;99657.28;;;14.68;98.49
11672;BME280;5892;43.412;24.612;2022-09-13T03:18:37;99657.28;;;14.68;98.85
11672;BME280;5892;43.412;24.612;2022-09-13T03:21:33;99663.59;;;14.68;99.24
11672;BME280;5892;43.412;24.612;2022-09-13T03:24:35;99664.22;;;14.62;99.60
11672;BME280;5892;43.412;24.612;2022-09-13T03:27:17;99650.59;;;14.53;100.00
11672;BME280;5892;43.412;24.612;2022-09-13T03:29:55;99649.44;;;14.54;100.00
11672;BME280;5892;43.412;24.612;2022-09-13T03:32:35;99649.00;;;14.52;100.00
11672;BME280;5892;43.412;24.612;2022-09-13T03:35:28;99664.56;;;14.60;100.00
11672;BME280;5892;43.412;24.612;2022-09-13T03:38:16;99670.53;;;14.62;100.00
11672;BME280;5892;43.412;24.612;2022-09-13T03:40:54;99659.13;;;14.48;100.00
11672;BME280;5892;43.412;24.612;2022-09-13T03:43:30;99662.59;;;14.61;100.00
11672;BME280;5892;43.412;24.612;2022-09-13T03:46:15;99662.44;;;14.54;100.00
11672;BME280;5892;43.412;24.612;2022-09-13T03:49:08;99658.41;;;14.51;100.00
11672;BME280;5892;43.412;24.612;2022-09-13T03:51:38;99665.63;;;14.56;100.00
11672;BME280;5892;43.412;24.612;2022-09-13T03:54:09;99652.72;;;14.44;100.00
11672;BME280;5892;43.412;24.612;2022-09-13T03:56:39;99661.97;;;14.52;100.00
11672;BME280;5892;43.412;24.612;2022-09-13T03:59:08;99666.41;;;14.56;100.00
11672;BME280;5892;43.412;24.612;2022-09-13T04:01:38;99668.84;;;14.58;100.00
11672;BME280;5892;43.412;24.612;2022-09-13T04:04:16;99669.63;;;14.58;100.00
11672;BME280;5892;43.412;24.612;2022-09-13T04:06:45;99676.66;;;14.56;100.00
11672;BME280;5892;43.412;24.612;2022-09-13T04:09:17;99676.50;;;14.64;100.00
11672;BME280;5892;43.412;24.612;2022-09-13T04:11:47;99671.53;;;14.70;100.00
11672;BME280;5892;43.412;24.612;2022-09-13T04:14:15;99677.97;;;14.90;100.00
11672;BME280;5892;43.412;24.612;2022-09-13T04:16:51;99671.72;;;15.08;98.90
11672;BME280;5892;43.412;24.612;2022-09-13T04:19:29;99679.56;;;15.38;97.01
11672;BME280;5892;43.412;24.612;2022-09-13T04:21:58;99682.88;;;15.59;95.56
11672;BME280;5892;43.412;24.612;2022-09-13T04:24:33;99677.38;;;15.78;94.25
11672;BME280;5892;43.412;24.612;2022-09-13T04:27:13;99672.34;;;15.99;92.12
11672;BME280;5892;43.412;24.612;2022-09-13T04:29:47;99668.78;;;16.18;90.66
11672;BME280;5892;43.412;24.612;2022-09-13T04:32:15;99676.06;;;16.45;88.83
11672;BME280;5892;43.412;24.612;2022-09-13T04:34:49;99673.28;;;16.65;87.33
11672;BME280;5892;43.412;24.612;2022-09-13T04:37:23;99683.59;;;16.87;85.51
11672;BME280;5892;43.412;24.612;2022-09-13T04:39:59;99674.94;;;17.11;84.06
11672;BME280;5892;43.412;24.612;2022-09-13T04:42:28;99680.78;;;17.29;82.69
11672;BME280;5892;43.412;24.612;2022-09-13T04:44:57;99665.44;;;17.35;81.58
11672;BME280;5892;43.412;24.612;2022-09-13T04:47:39;99685.84;;;17.72;80.15
11672;BME280;5892;43.412;24.612;2022-09-13T04:50:08;99684.50;;;17.89;78.89
11672;BME280;5892;43.412;24.612;2022-09-13T04:52:37;99677.56;;;18.02;78.16
11672;BME280;5892;43.412;24.612;2022-09-13T04:55:07;99675.34;;;18.15;77.43
11672;BME280;5892;43.412;24.612;2022-09-13T04:58:06;99687.53;;;18.37;76.34
11672;BME280;5892;43.412;24.612;2022-09-13T05:01:05;99694.75;;;18.45;75.57
11672;BME280;5892;43.412;24.612;2022-09-13T05:03:39;99690.66;;;18.65;74.74
11672;BME280;5892;43.412;24.612;2022-09-13T05:06:21;99662.72;;;18.51;74.38
11672;BME280;5892;43.412;24.612;2022-09-13T05:08:51;99693.16;;;18.77;73.96
11672;BME280;5892;43.412;24.612;2022-09-13T05:11:32;99694.19;;;18.99;73.02
11672;BME280;5892;43.412;24.612;2022-09-13T05:14:11;99703.28;;;18.96;73.12
11672;BME280;5892;43.412;24.612;2022-09-13T05:16:41;99703.47;;;19.14;72.21
11672;BME280;5892;43.412;24.612;2022-09-13T05:19:22;99700.44;;;19.29;71.86
11672;BME280;5892;43.412;24.612;2022-09-13T05:22:02;99699.72;;;19.39;71.38
11672;BME280;5892;43.412;24.612;2022-09-13T05:28:10;99693.94;;;19.59;70.13
11672;BME280;5892;43.412;24.612;2022-09-13T05:30:53;99709.16;;;19.75;70.14
11672;BME280;5892;43.412;24.612;2022-09-13T05:33:27;99710.09;;;19.97;68.70
11672;BME280;5892;43.412;24.612;2022-09-13T05:35:56;99716.91;;;20.07;68.34
11672;BME280;5892;43.412;24.612;2022-09-13T05:39:11;99719.41;;;20.29;68.10
11672;BME280;5892;43.412;24.612;2022-09-13T05:41:41;99719.88;;;20.35;67.58
11672;BME280;5892;43.412;24.612;2022-09-13T05:44:13;99715.50;;;20.41;67.35
11672;BME280;5892;43.412;24.612;2022-09-13T05:46:51;99720.31;;;20.41;66.78
11672;BME280;5892;43.412;24.612;2022-09-13T05:49:20;99715.22;;;20.60;66.06
11672;BME280;5892;43.412;24.612;2022-09-13T05:51:53;99708.47;;;20.61;65.71
11672;BME280;5892;43.412;24.612;2022-09-13T05:54:30;99721.22;;;20.80;65.61
11672;BME280;5892;43.412;24.612;2022-09-13T05:56:59;99703.75;;;20.87;64.91
11672;BME280;5892;43.412;24.612;2022-09-13T05:59:29;99706.94;;;20.92;64.83
11672;BME280;5892;43.412;24.612;2022-09-13T06:02:02;99683.06;;;20.95;64.07
11672;BME280;5892;43.412;24.612;2022-09-13T06:04:31;99709.03;;;21.27;63.48
11672;BME280;5892;43.412;24.612;2022-09-13T06:07:02;99701.44;;;21.17;63.46
11672;BME280;5892;43.412;24.612;2022-09-13T06:09:32;99699.84;;;21.16;63.32
11672;BME280;5892;43.412;24.612;2022-09-13T06:12:08;99716.19;;;21.39;62.62
11672;BME280;5892;43.412;24.612;2022-09-13T06:14:52;99718.97;;;21.32;63.16
11672;BME280;5892;43.412;24.612;2022-09-13T06:17:22;99705.06;;;21.35;62.95
11672;BME280;5892;43.412;24.612;2022-09-13T06:19:58;99727.75;;;21.69;61.66
11672;BME280;5892;43.412;24.612;2022-09-13T06:22:26;99722.94;;;21.73;60.36
11672;BME280;5892;43.412;24.612;2022-09-13T06:25:40;99726.13;;;21.68;60.67
11672;BME280;5892;43.412;24.612;2022-09-13T06:28:22;99732.91;;;21.81;59.97
11672;BME280;5892;43.412;24.612;2022-09-13T06:30:50;99730.13;;;21.95;59.67
11672;BME280;5892;43.412;24.612;2022-09-13T06:33:20;99740.88;;;21.76;60.27
11672;BME280;5892;43.412;24.612;2022-09-13T06:35:51;99732.13;;;21.81;59.93
11672;BME280;5892;43.412;24.612;2022-09-13T06:38:20;99743.28;;;22.02;59.53
11672;BME280;5892;43.412;24.612;2022-09-13T06:41:02;99739.69;;;22.05;58.60
11672;BME280;5892;43.412;24.612;2022-09-13T06:43:36;99752.00;;;22.25;57.53
11672;BME280;5892;43.412;24.612;2022-09-13T06:46:10;99758.72;;;22.46;56.86
11672;BME280;5892;43.412;24.612;2022-09-13T06:48:44;99749.91;;;22.58;56.43
11672;BME280;5892;43.412;24.612;2022-09-13T06:51:15;99742.34;;;22.55;56.44
11672;BME280;5892;43.412;24.612;2022-09-13T06:53:47;99750.25;;;22.77;55.26
11672;BME280;5892;43.412;24.612;2022-09-13T06:56:23;99727.16;;;22.59;54.45
11672;BME280;5892;43.412;24.612;2022-09-13T06:58:56;99732.41;;;22.43;53.89
11672;BME280;5892;43.412;24.612;2022-09-13T07:01:31;99752.66;;;22.65;54.37
11672;BME280;5892;43.412;24.612;2022-09-13T07:04:13;99760.22;;;22.68;54.20
11672;BME280;5892;43.412;24.612;2022-09-13T07:06:49;99761.41;;;22.77;54.63
11672;BME280;5892;43.412;24.612;2022-09-13T07:09:22;99746.63;;;22.84;53.79
11672;BME280;5892;43.412;24.612;2022-09-13T07:11:51;99765.81;;;22.75;53.85
11672;BME280;5892;43.412;24.612;2022-09-13T07:14:22;99762.16;;;22.89;53.53
11672;BME280;5892;43.412;24.612;2022-09-13T07:16:53;99759.72;;;22.94;53.32
11672;BME280;5892;43.412;24.612;2022-09-13T07:19:30;99741.09;;;22.73;53.76
11672;BME280;5892;43.412;24.612;2022-09-13T07:22:03;99762.56;;;22.91;53.26
11672;BME280;5892;43.412;24.612;2022-09-13T07:24:33;99767.38;;;22.87;53.02
11672;BME280;5892;43.412;24.612;2022-09-13T07:27:04;99743.78;;;22.88;52.70
11672;BME280;5892;43.412;24.612;2022-09-13T07:29:36;99765.97;;;23.23;52.68
11672;BME280;5892;43.412;24.612;2022-09-13T07:32:07;99774.31;;;23.27;52.50
11672;BME280;5892;43.412;24.612;2022-09-13T07:34:40;99772.84;;;23.08;52.18
11672;BME280;5892;43.412;24.612;2022-09-13T07:37:32;99770.47;;;23.06;52.39
11672;BME280;5892;43.412;24.612;2022-09-13T07:43:27;99743.41;;;22.82;51.00
11672;BME280;5892;43.412;24.612;2022-09-13T07:45:57;99786.81;;;23.04;51.60
11672;BME280;5892;43.412;24.612;2022-09-13T07:48:30;99772.53;;;22.92;52.74
11672;BME280;5892;43.412;24.612;2022-09-13T07:51:04;99781.19;;;23.18;51.60
11672;BME280;5892;43.412;24.612;2022-09-13T07:53:50;99781.44;;;23.35;51.44
11672;BME280;5892;43.412;24.612;2022-09-13T07:56:28;99775.41;;;23.47;51.00
11672;BME280;5892;43.412;24.612;2022-09-13T07:58:57;99782.50;;;23.62;50.47
11672;BME280;5892;43.412;24.612;2022-09-13T08:01:29;99774.84;;;23.70;50.44
11672;BME280;5892;43.412;24.612;2022-09-13T08:04:03;99784.41;;;23.76;50.43
11672;BME280;5892;43.412;24.612;2022-09-13T08:10:11;99781.38;;;23.52;50.50
11672;BME280;5892;43.412;24.612;2022-09-13T08:12:53;99777.34;;;23.57;51.16
11672;BME280;5892;43.412;24.612;2022-09-13T08:15:22;99773.28;;;23.65;50.40
11672;BME280;5892;43.412;24.612;2022-09-13T08:17:52;99776.78;;;23.80;49.38
11672;BME280;5892;43.412;24.612;2022-09-13T08:20:20;99776.78;;;23.76;49.38
11672;BME280;5892;43.412;24.612;2022-09-13T08:22:50;99742.25;;;23.49;49.71
11672;BME280;5892;43.412;24.612;2022-09-13T08:25:22;99764.94;;;23.58;50.07
11672;BME280;5892;43.412;24.612;2022-09-13T08:27:59;99746.88;;;23.66;48.99
11672;BME280;5892;43.412;24.612;2022-09-13T08:30:29;99730.06;;;23.73;48.64
11672;BME280;5892;43.412;24.612;2022-09-13T08:33:11;99752.09;;;24.08;47.34
11672;BME280;5892;43.412;24.612;2022-09-13T08:35:48;99746.88;;;24.18;47.71
11672;BME280;5892;43.412;24.612;2022-09-13T08:38:19;99683.34;;;23.67;47.49
11672;BME280;5892;43.412;24.612;2022-09-13T08:44:14;99749.28;;;24.49;44.50
11672;BME280;5892;43.412;24.612;2022-09-13T08:46:54;99742.53;;;24.47;43.05
11672;BME280;5892;43.412;24.612;2022-09-13T08:49:31;99712.59;;;24.40;43.37
11672;BME280;5892;43.412;24.612;2022-09-13T08:52:23;99706.63;;;24.38;43.47
11672;BME280;5892;43.412;24.612;2022-09-13T08:54:54;99719.25;;;24.50;42.43
11672;BME280;5892;43.412;24.612;2022-09-13T08:57:32;99727.34;;;24.44;42.59
11672;BME280;5892;43.412;24.612;2022-09-13T09:00:14;99712.72;;;24.60;43.19
11672;BME280;5892;43.412;24.612;2022-09-13T09:02:58;99716.06;;;24.82;42.52
11672;BME280;5892;43.412;24.612;2022-09-13T09:05:39;99713.13;;;24.62;42.00
11672;BME280;5892;43.412;24.612;2022-09-13T09:08:20;99710.19;;;24.42;41.80
11672;BME280;5892;43.412;24.612;2022-09-13T09:10:50;99709.91;;;24.64;41.92
11672;BME280;5892;43.412;24.612;2022-09-13T09:13:27;99693.78;;;24.71;42.02
11672;BME280;5892;43.412;24.612;2022-09-13T09:16:06;99690.91;;;24.78;41.49
11672;BME280;5892;43.412;24.612;2022-09-13T09:18:39;99695.28;;;24.79;40.88
11672;BME280;5892;43.412;24.612;2022-09-13T09:21:15;99700.50;;;24.77;41.22
11672;BME280;5892;43.412;24.612;2022-09-13T09:23:54;99672.78;;;24.56;40.40
11672;BME280;5892;43.412;24.612;2022-09-13T09:26:26;99691.28;;;24.80;38.28
11672;BME280;5892;43.412;24.612;2022-09-13T09:28:57;99691.78;;;24.72;39.19
11672;BME280;5892;43.412;24.612;2022-09-13T09:31:47;99681.75;;;24.74;39.26
11672;BME280;5892;43.412;24.612;2022-09-13T09:34:34;99691.34;;;25.04;38.15
11672;BME280;5892;43.412;24.612;2022-09-13T09:37:14;99692.47;;;25.10;37.94
11672;BME280;5892;43.412;24.612;2022-09-13T09:39:58;99686.69;;;24.94;38.80
11672;BME280;5892;43.412;24.612;2022-09-13T09:42:41;99682.88;;;25.07;38.58
11672;BME280;5892;43.412;24.612;2022-09-13T09:45:23;99659.00;;;24.99;38.92
11672;BME280;5892;43.412;24.612;2022-09-13T09:48:17;99656.44;;;25.08;38.43
11672;BME280;5892;43.412;24.612;2022-09-13T09:50:50;99680.94;;;25.31;38.67
11672;BME280;5892;43.412;24.612;2022-09-13T09:53:26;99686.25;;;25.49;36.46
11672;BME280;5892;43.412;24.612;2022-09-13T09:56:01;99670.63;;;25.48;35.73
11672;BME280;5892;43.412;24.612;2022-09-13T09:58:39;99672.50;;;25.54;36.51
11672;BME280;5892;43.412;24.612;2022-09-13T10:01:16;99675.72;;;25.80;36.17
11672;BME280;5892;43.412;24.612;2022-09-13T10:04:03;99658.50;;;25.78;35.92
11672;BME280;5892;43.412;24.612;2022-09-13T10:06:46;99665.09;;;25.91;36.40
11672;BME280;5892;43.412;24.612;2022-09-13T10:09:19;99657.44;;;25.91;36.06
11672;BME280;5892;43.412;24.612;2022-09-13T10:12:01;99640.88;;;25.77;37.12
11672;BME280;5892;43.412;24.612;2022-09-13T10:14:42;99648.97;;;25.95;36.79
11672;BME280;5892;43.412;24.612;2022-09-13T10:17:33;99666.50;;;25.56;35.86
11672;BME280;5892;43.412;24.612;2022-09-13T10:20:20;99654.31;;;25.86;35.65
11672;BME280;5892;43.412;24.612;2022-09-13T10:23:19;99644.22;;;26.11;35.11
11672;BME280;5892;43.412;24.612;2022-09-13T10:26:13;99646.41;;;26.24;34.57
11672;BME280;5892;43.412;24.612;2022-09-13T10:29:04;99648.19;;;26.34;34.75
11672;BME280;5892;43.412;24.612;2022-09-13T10:31:47;99647.53;;;26.46;34.49
11672;BME280;5892;43.412;24.612;2022-09-13T10:34:47;99648.66;;;26.32;33.51
11672;BME280;5892;43.412;24.612;2022-09-13T10:37:39;99638.44;;;26.22;34.54
11672;BME280;5892;43.412;24.612;2022-09-13T10:43:44;99645.56;;;25.60;34.35
11672;BME280;5892;43.412;24.612;2022-09-13T10:46:21;99624.41;;;25.56;34.63
11672;BME280;5892;43.412;24.612;2022-09-13T10:48:53;99634.03;;;25.55;34.94
11672;BME280;5892;43.412;24.612;2022-09-13T10:51:34;99622.69;;;25.85;34.62
11672;BME280;5892;43.412;24.612;2022-09-13T10:54:23;99627.53;;;25.61;33.87
11672;BME280;5892;43.412;24.612;2022-09-13T10:56:58;99598.00;;;25.53;33.70
11672;BME280;5892;43.412;24.612;2022-09-13T10:59:31;99637.13;;;25.64;34.10
11672;BME280;5892;43.412;24.612;2022-09-13T11:05:23;99635.72;;;26.35;33.74
11672;BME280;5892;43.412;24.612;2022-09-13T11:11:23;99624.03;;;26.92;31.39
11672;BME280;5892;43.412;24.612;2022-09-13T11:14:20;99616.81;;;26.91;32.09
11672;BME280;5892;43.412;24.612;2022-09-13T11:17:01;99628.38;;;26.41;32.46
11672;BME280;5892;43.412;24.612;2022-09-13T11:23:01;99626.78;;;26.20;32.83
11672;BME280;5892;43.412;24.612;2022-09-13T11:25:47;99625.28;;;26.35;32.47
11672;BME280;5892;43.412;24.612;2022-09-13T11:28:39;99618.97;;;26.31;31.80
11672;BME280;5892;43.412;24.612;2022-09-13T11:31:26;99618.75;;;26.22;32.77
11672;BME280;5892;43.412;24.612;2022-09-13T11:34:38;99623.72;;;26.34;31.86
11672;BME280;5892;43.412;24.612;2022-09-13T11:37:21;99617.44;;;26.46;32.79
11672;BME280;5892;43.412;24.612;2022-09-13T11:40:00;99608.06;;;26.53;32.88
11672;BME280;5892;43.412;24.612;2022-09-13T11:42:42;99612.19;;;26.65;32.68
11672;BME280;5892;43.412;24.612;2022-09-13T11:45:34;99609.28;;;26.88;32.46
11672;BME280;5892;43.412;24.612;2022-09-13T11:48:21;99593.06;;;26.76;33.46
11672;BME280;5892;43.412;24.612;2022-09-13T11:50:57;99606.75;;;26.58;32.84
11672;BME280;5892;43.412;24.612;2022-09-13T11:56:45;99601.41;;;26.27;33.25
11672;BME280;5892;43.412;24.612;2022-09-13T11:59:30;99604.31;;;26.20;32.29
11672;BME280;5892;43.412;24.612;2022-09-13T12:02:26;99602.97;;;25.89;32.97
11672;BME280;5892;43.412;24.612;2022-09-13T12:05:04;99594.47;;;25.92;32.30
11672;BME280;5892;43.412;24.612;2022-09-13T12:07:40;99595.25;;;25.93;31.73
11672;BME280;5892;43.412;24.612;2022-09-13T12:10:17;99593.59;;;26.15;32.17
11672;BME280;5892;43.412;24.612;2022-09-13T12:12:57;99605.25;;;26.33;32.48
11672;BME280;5892;43.412;24.612;2022-09-13T12:15:33;99604.41;;;26.36;31.61
11672;BME280;5892;43.412;24.612;2022-09-13T12:18:10;99510.69;;;25.71;30.98
11672;BME280;5892;43.412;24.612;2022-09-13T12:20:42;99593.09;;;26.40;31.66
11672;BME280;5892;43.412;24.612;2022-09-13T12:23:19;99540.28;;;25.95;31.96
11672;BME280;5892;43.412;24.612;2022-09-13T12:26:06;99603.97;;;26.18;31.89
11672;BME280;5892;43.412;24.612;2022-09-13T12:28:39;99596.84;;;25.94;31.27
11672;BME280;5892;43.412;24.612;2022-09-13T12:31:19;99580.78;;;25.75;32.37
11672;BME280;5892;43.412;24.612;2022-09-13T12:34:04;99584.78;;;25.54;32.63
11672;BME280;5892;43.412;24.612;2022-09-13T12:42:51;99606.78;;;25.79;32.42
11672;BME280;5892;43.412;24.612;2022-09-13T12:49:09;99587.16;;;25.32;31.75
11672;BME280;5892;43.412;24.612;2022-09-13T12:52:33;99569.47;;;25.35;31.98
11672;BME280;5892;43.412;24.612;2022-09-13T12:55:37;99577.56;;;25.53;32.34
11672;BME280;5892;43.412;24.612;2022-09-13T13:01:24;99596.53;;;25.68;31.99
11672;BME280;5892;43.412;24.612;2022-09-13T13:04:28;99582.66;;;25.81;31.36
11672;BME280;5892;43.412;24.612;2022-09-13T13:07:02;99585.41;;;25.85;31.02
11672;BME280;5892;43.412;24.612;2022-09-13T13:09:47;99586.53;;;25.87;31.38
11672;BME280;5892;43.412;24.612;2022-09-13T13:12:38;99594.75;;;25.98;30.63
11672;BME280;5892;43.412;24.612;2022-09-13T13:16:03;99594.41;;;25.96;31.18
11672;BME280;5892;43.412;24.612;2022-09-13T13:18:46;99601.38;;;25.88;30.81
11672;BME280;5892;43.412;24.612;2022-09-13T13:21:52;99602.09;;;25.72;31.89
11672;BME280;5892;43.412;24.612;2022-09-13T13:24:48;99597.31;;;25.46;32.14
11672;BME280;5892;43.412;24.612;2022-09-13T13:27:39;99597.56;;;25.55;31.82
11672;BME280;5892;43.412;24.612;2022-09-13T13:30:37;99598.84;;;25.93;31.36
11672;BME280;5892;43.412;24.612;2022-09-13T13:33:14;99587.91;;;25.99;31.48
11672;BME280;5892;43.412;24.612;2022-09-13T13:35:47;99595.25;;;26.12;29.73
11672;BME280;5892;43.412;24.612;2022-09-13T13:38:53;99585.69;;;26.30;29.20
11672;BME280;5892;43.412;24.612;2022-09-13T13:41:38;99574.81;;;26.32;29.53
11672;BME280;5892;43.412;24.612;2022-09-13T13:45:19;99584.84;;;26.49;29.22
11672;BME280;5892;43.412;24.612;2022-09-13T13:51:11;99589.28;;;26.10;30.92
11672;BME280;5892;43.412;24.612;2022-09-13T13:53:43;99585.47;;;26.21;30.98
11672;BME280;5892;43.412;24.612;2022-09-13T14:00:10;99593.66;;;25.92;31.15
11672;BME280;5892;43.412;24.612;2022-09-13T14:02:49;99580.38;;;25.53;31.68
11672;BME280;5892;43.412;24.612;2022-09-13T14:05:29;99593.69;;;25.49;32.06
11672;BME280;5892;43.412;24.612;2022-09-13T14:08:24;99591.66;;;25.72;32.06
11672;BME280;5892;43.412;24.612;2022-09-13T14:11:22;99566.47;;;25.69;31.45
11672;BME280;5892;43.412;24.612;2022-09-13T14:14:28;99574.53;;;25.87;31.35
11672;BME280;5892;43.412;24.612;2022-09-13T14:17:41;99575.25;;;26.10;31.12
11672;BME280;5892;43.412;24.612;2022-09-13T14:20:20;99569.63;;;26.10;29.56
11672;BME280;5892;43.412;24.612;2022-09-13T14:23:15;99593.03;;;26.24;29.21
11672;BME280;5892;43.412;24.612;2022-09-13T14:25:52;99595.78;;;26.27;29.64
11672;BME280;5892;43.412;24.612;2022-09-13T14:28:32;99579.56;;;26.15;30.09
11672;BME280;5892;43.412;24.612;2022-09-13T14:31:28;99591.94;;;25.98;29.66
11672;BME280;5892;43.412;24.612;2022-09-13T14:34:37;99606.41;;;25.53;30.24
11672;BME280;5892;43.412;24.612;2022-09-13T14:37:23;99599.00;;;25.43;30.28
11672;BME280;5892;43.412;24.612;2022-09-13T14:40:17;99587.81;;;25.40;30.09
11672;BME280;5892;43.412;24.612;2022-09-13T14:42:53;99582.34;;;25.33;30.96
11672;BME280;5892;43.412;24.612;2022-09-13T14:45:30;99599.34;;;25.45;30.10
11672;BME280;5892;43.412;24.612;2022-09-13T14:48:16;99594.09;;;25.47;30.69
11672;BME280;5892;43.412;24.612;2022-09-13T14:50:57;99579.91;;;25.35;30.75
11672;BME280;5892;43.412;24.612;2022-09-13T14:53:37;99595.00;;;25.41;30.73
11672;BME280;5892;43.412;24.612;2022-09-13T14:56:36;99573.38;;;25.18;30.79
11672;BME280;5892;43.412;24.612;2022-09-13T14:59:14;99600.41;;;25.31;31.13
11672;BME280;5892;43.412;24.612;2022-09-13T15:01:53;99593.63;;;25.29;30.61
11672;BME280;5892;43.412;24.612;2022-09-13T15:04:25;99599.34;;;25.45;31.26